RKPC/CJU METAR and TAF weather

Enter ICAO airport designator
Station Type Date Time Source
RKPC METAR 2021/10/20 07:00 UTC NOAA

RKPC 200700Z 33005KT 280V360 9999 FEW035 BKN180 14/04 Q1020 NOSIG


Station Type Date Time Source
RKPC Decoded METAR 2021/10/20 07:00 UTC NOAA

Cheju International Airport, Korea, South (RKPC) 33-30N 126-30E 28M
Oct 20, 2021 - 03:00 AM EDT / 2021.10.20 0700 UTC
Wind: from the NNW (330 degrees) at 6 MPH (5 KT) (direction variable):0
Visibility: greater than 7 mile(s):0
Sky conditions: mostly cloudy
Temperature: 57 F (14 C)
Dew Point: 39 F (4 C)
Relative Humidity: 50%
Pressure (altimeter): 30.12 in. Hg (1020 hPa)
ob: RKPC 200700Z 33005KT 280V360 9999 FEW035 BKN180 14/04 Q1020 NOSIG
cycle: 7

Station Type Date Time Source
RKPC TAF 2021/10/20 06:07 UTC NOAA

TAF RKPC 200500Z 2006/2112 36007KT 9999 SCT030 BKN200 TN13/2020Z TX16/2105Z
BECMG 2014/2015 BKN030 BKN120
BECMG 2104/2105 SCT030

Example: see airport list